Thunder radar more information blitzortung!


Radar de pluja more information rain snow radar


Visita la nostra xarxa de llocs de meteo:

Template documentation
and downloads

And another site



No particular awareness of the weather is required.    There are no Weather-warnings

Pagina Historial Weather Underground text

Diari Resum Juliol 10, 2017 Unitats:  Mètric    Imperial   Tant
« Previous Dia
SegĂźent Dia »
Diari Setmana Mensual Anual Personalitzada
  Maxima: Minima: Media:
Temperatura: 33.2 °C 19.8 °C 26.7 °C
Punt de rosada: 18.9 °C 12.4 °C 15.7 °C
Humitat: 83 % 33 % 53 %
Wind Speed: 25.9 km/h 0.0 km/h 7.1 km/h
RĂ fegues de vent: 25.9 km/h - -
Vent:- - SE
Pression baro: 1014.8 hPa 1010.0 hPa -
Precipitacions: 0.0 mm    
Historical Graphs
 
 
Dades de taula per Juliol 10, 2017
Temps Temperatura Punt de rosada Pression baro Vent Wind Speed RĂ fegues de vent Humitat Rainfall Rate (Hourly)
00:00 20.4 °C 17.4 °C 1011.7 hPa Calm   3.2 km/h 83 % 0.0 mm
00:04 22.7 °C 18.2 °C 1011.7 hPa ENE 3.7 km/h 3.7 km/h 76 % 0.0 mm
00:10 20.4 °C 17.4 °C 1011.7 hPa NE 1.6 km/h 3.2 km/h 83 % 0.0 mm
00:20 20.3 °C 17.3 °C 1011.7 hPa NE 1.6 km/h 3.2 km/h 83 % 0.0 mm
00:30 20.2 °C 17.2 °C 1011.7 hPa NE 1.6 km/h 4.8 km/h 83 % 0.0 mm
00:40 20.2 °C 17.2 °C 1011.7 hPa NE 3.2 km/h 4.8 km/h 83 % 0.0 mm
00:50 20.1 °C 17.1 °C 1011.7 hPa Calm   1.6 km/h 83 % 0.0 mm
01:00 20.0 °C 17.0 °C 1011.7 hPa Calm   3.2 km/h 83 % 0.0 mm
01:10 20.0 °C 17.0 °C 1011.7 hPa ENE 3.2 km/h 3.2 km/h 83 % 0.0 mm
01:20 20.0 °C 16.8 °C 1011.7 hPa NE 3.2 km/h 4.8 km/h 82 % 0.0 mm
01:30 20.0 °C 16.8 °C 1011.7 hPa North 1.6 km/h 4.8 km/h 82 % 0.0 mm
01:40 19.9 °C 16.9 °C 1011.7 hPa Calm   3.2 km/h 83 % 0.0 mm
01:50 19.8 °C 16.8 °C 1011.7 hPa NNE 1.6 km/h 3.2 km/h 83 % 0.0 mm
02:00 19.8 °C 16.8 °C 1011.7 hPa ENE 1.6 km/h 3.2 km/h 83 % 0.0 mm
02:10 19.9 °C 16.9 °C 1011.7 hPa NE 1.6 km/h 4.8 km/h 83 % 0.0 mm
02:20 20.0 °C 16.8 °C 1011.7 hPa NE 1.6 km/h 3.2 km/h 82 % 0.0 mm
02:30 20.0 °C 16.8 °C 1011.7 hPa NE 1.6 km/h 3.2 km/h 82 % 0.0 mm
02:40 20.2 °C 17.0 °C 1011.7 hPa NE 1.6 km/h 3.2 km/h 82 % 0.0 mm
02:50 20.6 °C 17.4 °C 1011.7 hPa NE 1.6 km/h 4.8 km/h 82 % 0.0 mm
03:00 21.0 °C 17.4 °C 1011.7 hPa NE 1.6 km/h 1.6 km/h 80 % 0.0 mm
03:10 21.1 °C 17.3 °C 1011.7 hPa NE 3.2 km/h 4.8 km/h 79 % 0.0 mm
03:20 22.0 °C 18.0 °C 1011.7 hPa NNE 1.6 km/h 4.8 km/h 78 % 0.0 mm
03:30 22.0 °C 17.6 °C 1011.7 hPa NE 4.8 km/h 6.4 km/h 76 % 0.0 mm
03:40 22.1 °C 17.7 °C 1011.7 hPa NE 4.8 km/h 8.0 km/h 76 % 0.0 mm
03:50 23.3 °C 18.2 °C 1011.7 hPa NNE 3.2 km/h 8.0 km/h 73 % 0.0 mm
04:00 22.9 °C 17.6 °C 1011.7 hPa NNE 8.0 km/h 8.0 km/h 72 % 0.0 mm
04:10 22.9 °C 17.8 °C 1011.7 hPa NNE 1.6 km/h 4.8 km/h 73 % 0.0 mm
04:20 23.0 °C 17.7 °C 1011.7 hPa NNE 4.8 km/h 6.4 km/h 72 % 0.0 mm
04:30 23.1 °C 17.8 °C 1012.8 hPa NNE 1.6 km/h 3.2 km/h 72 % 0.0 mm
04:40 23.5 °C 17.7 °C 1012.8 hPa NNE 1.6 km/h 3.2 km/h 70 % 0.0 mm
04:50 23.7 °C 17.9 °C 1012.8 hPa Calm   3.2 km/h 70 % 0.0 mm
05:00 23.8 °C 18.0 °C 1012.8 hPa West 1.6 km/h 1.6 km/h 70 % 0.0 mm
10:03 24.0 °C 17.9 °C 1012.8 hPa ESE 3.7 km/h   69 % 0.0 mm
10:08 24.3 °C 18.0 °C 1012.8 hPa SW 2.6 km/h 2.6 km/h 68 % 0.0 mm
10:13 24.6 °C 18.3 °C 1012.8 hPa SW 3.7 km/h 3.7 km/h 68 % 0.0 mm
10:18 24.8 °C 18.5 °C 1012.8 hPa WSW 3.7 km/h 3.7 km/h 68 % 0.0 mm
10:23 24.4 °C 18.1 °C 1012.8 hPa WSW 3.9 km/h 3.9 km/h 68 % 0.0 mm
10:28 24.7 °C 18.4 °C 1012.8 hPa SE 6.1 km/h 6.1 km/h 68 % 0.0 mm
10:33 24.9 °C 18.6 °C 1012.8 hPa SE 4.2 km/h 4.2 km/h 68 % 0.0 mm
10:38 25.2 °C 18.4 °C 1012.8 hPa SE 7.4 km/h 7.4 km/h 66 % 0.0 mm
10:43 25.2 °C 18.2 °C 1012.8 hPa ESE 5.6 km/h 5.6 km/h 65 % 0.0 mm
10:48 25.4 °C 18.1 °C 1012.8 hPa NNE 9.3 km/h 9.3 km/h 64 % 0.0 mm
10:53 25.8 °C 18.7 °C 1012.8 hPa ENE 7.9 km/h 7.9 km/h 65 % 0.0 mm
10:58 26.0 °C 18.7 °C 1012.8 hPa ENE 6.1 km/h 6.1 km/h 64 % 0.0 mm
11:03 25.9 °C 18.3 °C 1012.8 hPa WNW 9.3 km/h 9.3 km/h 63 % 0.0 mm
11:08 26.1 °C 18.2 °C 1012.8 hPa ENE 7.4 km/h 7.4 km/h 62 % 0.0 mm
11:13 26.5 °C 18.6 °C 1012.8 hPa West 3.7 km/h 3.9 km/h 62 % 0.0 mm
11:18 26.9 °C 18.7 °C 1012.8 hPa NE 4.7 km/h 4.7 km/h 61 % 0.0 mm
11:23 26.9 °C 18.5 °C 1012.8 hPa South 5.6 km/h 5.8 km/h 60 % 0.0 mm
11:28 27.1 °C 18.4 °C 1012.8 hPa ESE 3.9 km/h 3.9 km/h 59 % 0.0 mm
11:33 27.5 °C 18.8 °C 1012.8 hPa SSW 5.6 km/h 5.6 km/h 59 % 0.0 mm
11:38 27.7 °C 18.9 °C 1011.7 hPa ENE 3.9 km/h 3.9 km/h 59 % 0.0 mm
11:43 27.0 °C 18.3 °C 1011.7 hPa ENE 9.3 km/h 9.3 km/h 59 % 0.0 mm
11:48 27.1 °C 18.4 °C 1011.7 hPa ENE 9.3 km/h 9.3 km/h 59 % 0.0 mm
11:53 27.5 °C 18.5 °C 1011.7 hPa SE 13.0 km/h 13.0 km/h 58 % 0.0 mm
11:58 27.9 °C 18.6 °C 1011.7 hPa SE 11.1 km/h 11.1 km/h 57 % 0.0 mm
12:03 28.1 °C 18.5 °C 1011.7 hPa East 5.6 km/h 5.6 km/h 56 % 0.0 mm
12:08 28.0 °C 18.1 °C 1011.7 hPa NE 9.3 km/h 9.3 km/h 55 % 0.0 mm
12:13 27.9 °C 18.0 °C 1011.7 hPa East 5.6 km/h 5.6 km/h 55 % 0.0 mm
12:18 27.8 °C 17.9 °C 1011.7 hPa ENE 7.6 km/h 7.6 km/h 55 % 0.0 mm
12:23 28.2 °C 18.0 °C 1011.7 hPa ESE 5.6 km/h 5.6 km/h 54 % 0.0 mm
12:28 28.2 °C 18.0 °C 1011.7 hPa ESE 14.8 km/h 14.8 km/h 54 % 0.0 mm
12:33 28.1 °C 17.9 °C 1011.7 hPa NE 11.1 km/h 11.1 km/h 54 % 0.0 mm
12:38 28.6 °C 18.4 °C 1011.7 hPa ESE 16.7 km/h 16.7 km/h 54 % 0.0 mm
12:43 28.6 °C 18.4 °C 1011.7 hPa ESE 13.0 km/h 13.0 km/h 54 % 0.0 mm
12:48 28.7 °C 18.2 °C 1011.7 hPa East 18.5 km/h 18.5 km/h 53 % 0.0 mm
12:53 28.5 °C 18.0 °C 1011.7 hPa East 25.9 km/h 25.9 km/h 53 % 0.0 mm
12:58 28.7 °C 18.2 °C 1011.7 hPa ESE 14.8 km/h 14.8 km/h 53 % 0.0 mm
13:03 28.9 °C 18.1 °C 1011.7 hPa SSE 20.4 km/h 20.4 km/h 52 % 0.0 mm
13:08 29.0 °C 17.8 °C 1011.7 hPa ESE 11.1 km/h 11.1 km/h 51 % 0.0 mm
13:13 28.8 °C 17.9 °C 1011.7 hPa ESE 16.4 km/h 16.4 km/h 52 % 0.0 mm
13:18 28.7 °C 17.9 °C 1011.7 hPa ESE 13.7 km/h 13.7 km/h 52 % 0.0 mm
13:23 28.7 °C 17.9 °C 1011.7 hPa East 16.7 km/h 16.7 km/h 52 % 0.0 mm
13:28 28.8 °C 17.9 °C 1011.7 hPa East 20.4 km/h 20.4 km/h 52 % 0.0 mm
13:33 28.9 °C 18.1 °C 1011.7 hPa East 16.7 km/h 16.7 km/h 52 % 0.0 mm
13:38 28.8 °C 17.7 °C 1011.7 hPa South 20.4 km/h 20.4 km/h 51 % 0.0 mm
13:43 29.9 °C 18.1 °C 1011.7 hPa WNW 7.4 km/h 7.4 km/h 49 % 0.0 mm
13:48 31.1 °C 17.8 °C 1011.7 hPa SW 5.6 km/h 5.6 km/h 45 % 0.0 mm
13:53 30.8 °C 18.2 °C 1010.7 hPa East 9.3 km/h 9.3 km/h 47 % 0.0 mm
13:58 30.2 °C 17.7 °C 1010.7 hPa ESE 16.7 km/h 16.7 km/h 47 % 0.0 mm
14:03 29.8 °C 17.6 °C 1010.7 hPa ESE 16.9 km/h 16.9 km/h 48 % 0.0 mm
14:08 29.7 °C 17.5 °C 1011.7 hPa SSE 18.5 km/h 18.5 km/h 48 % 0.0 mm
14:13 30.3 °C 17.7 °C 1011.7 hPa SSE 16.7 km/h 16.7 km/h 47 % 0.0 mm
14:18 30.7 °C 18.4 °C 1011.7 hPa East 12.2 km/h 12.2 km/h 48 % 0.0 mm
14:23 30.3 °C 17.7 °C 1010.7 hPa ESE 16.7 km/h 16.7 km/h 47 % 0.0 mm
14:28 31.2 °C 17.8 °C 1010.7 hPa SW 5.6 km/h 5.6 km/h 45 % 0.0 mm
14:33 31.7 °C 17.9 °C 1010.7 hPa South 11.1 km/h 11.1 km/h 44 % 0.0 mm
14:38 30.5 °C 17.9 °C 1010.7 hPa East 11.1 km/h 11.1 km/h 47 % 0.0 mm
14:43 31.0 °C 17.3 °C 1010.7 hPa SW 14.8 km/h 14.8 km/h 44 % 0.0 mm
14:48 31.9 °C 17.4 °C 1010.7 hPa SW 9.3 km/h 9.3 km/h 42 % 0.0 mm
14:53 32.5 °C 17.6 °C 1010.7 hPa SW 9.0 km/h 9.0 km/h 41 % 0.0 mm
14:58 32.4 °C 17.4 °C 1010.7 hPa SSW 9.3 km/h 9.3 km/h 41 % 0.0 mm
15:03 32.5 °C 17.2 °C 1010.7 hPa WSW 11.1 km/h 11.1 km/h 40 % 0.0 mm
15:08 32.5 °C 17.2 °C 1010.7 hPa WNW 9.3 km/h 9.3 km/h 40 % 0.0 mm
15:13 32.5 °C 16.8 °C 1010.7 hPa SW 14.8 km/h 14.8 km/h 39 % 0.0 mm
15:18 32.1 °C 16.4 °C 1010.7 hPa SSW 11.4 km/h 11.4 km/h 39 % 0.0 mm
15:23 32.6 °C 16.8 °C 1010.7 hPa SW 11.9 km/h 11.9 km/h 39 % 0.0 mm
15:28 32.4 °C 16.3 °C 1010.7 hPa SW 9.3 km/h 10.3 km/h 38 % 0.0 mm
15:33 32.4 °C 16.3 °C 1010.7 hPa SSW 11.1 km/h 11.1 km/h 38 % 0.0 mm
15:38 32.1 °C 16.0 °C 1010.7 hPa SSE 13.0 km/h 13.0 km/h 38 % 0.0 mm
15:43 32.4 °C 15.8 °C 1010.7 hPa South 7.4 km/h 7.4 km/h 37 % 0.0 mm
15:48 33.2 °C 16.6 °C 1010.7 hPa SSW 13.0 km/h 13.0 km/h 37 % 0.0 mm
15:53 32.1 °C 15.6 °C 1010.7 hPa West 3.7 km/h 5.0 km/h 37 % 0.0 mm
15:58 32.0 °C 15.5 °C 1010.7 hPa SSW 9.3 km/h 9.3 km/h 37 % 0.0 mm
16:03 32.3 °C 15.8 °C 1010.7 hPa SW 9.5 km/h 9.5 km/h 37 % 0.0 mm
16:08 32.4 °C 15.4 °C 1010.7 hPa SW 14.8 km/h 14.8 km/h 36 % 0.0 mm
16:13 32.6 °C 15.6 °C 1010.7 hPa West 9.5 km/h 9.5 km/h 36 % 0.0 mm
16:18 32.1 °C 14.3 °C 1010.7 hPa South 16.7 km/h 16.7 km/h 34 % 0.0 mm
16:23 32.0 °C 14.6 °C 1010.7 hPa SW 11.4 km/h 11.4 km/h 35 % 0.0 mm
16:28 32.2 °C 14.8 °C 1010.7 hPa WSW 7.4 km/h 7.6 km/h 35 % 0.0 mm
16:33 32.4 °C 15.0 °C 1010.7 hPa WSW 13.0 km/h 13.0 km/h 35 % 0.0 mm
16:38 32.2 °C 14.8 °C 1010.0 hPa ESE 9.3 km/h 9.3 km/h 35 % 0.0 mm
16:43 32.2 °C 14.8 °C 1010.0 hPa West 7.4 km/h 7.4 km/h 35 % 0.0 mm
16:48 32.3 °C 14.9 °C 1010.0 hPa SW 6.9 km/h 6.9 km/h 35 % 0.0 mm
16:53 31.7 °C 13.9 °C 1010.0 hPa South 14.8 km/h 14.8 km/h 34 % 0.0 mm
16:58 31.6 °C 14.3 °C 1010.0 hPa West 14.5 km/h 14.5 km/h 35 % 0.0 mm
17:03 31.4 °C 14.1 °C 1010.0 hPa WSW 13.0 km/h 13.0 km/h 35 % 0.0 mm
17:08 31.4 °C 14.1 °C 1010.7 hPa SW 7.4 km/h 7.4 km/h 35 % 0.0 mm
17:13 31.2 °C 13.5 °C 1010.7 hPa SW 9.5 km/h 9.5 km/h 34 % 0.0 mm
17:18 31.3 °C 13.6 °C 1010.7 hPa South 14.8 km/h 14.8 km/h 34 % 0.0 mm
17:23 31.2 °C 13.9 °C 1010.0 hPa West 13.7 km/h 13.7 km/h 35 % 0.0 mm
17:28 31.6 °C 14.3 °C 1010.0 hPa SSW 16.7 km/h 16.7 km/h 35 % 0.0 mm
17:33 31.0 °C 13.3 °C 1010.0 hPa WSW 20.4 km/h 20.4 km/h 34 % 0.0 mm
17:38 31.2 °C 13.5 °C 1010.0 hPa SSW 11.1 km/h 11.1 km/h 34 % 0.0 mm
17:43 31.4 °C 13.7 °C 1010.0 hPa SW 11.1 km/h 11.1 km/h 34 % 0.0 mm
17:48 31.2 °C 13.5 °C 1010.0 hPa SW 11.1 km/h 11.1 km/h 34 % 0.0 mm
17:53 31.5 °C 13.7 °C 1010.0 hPa SW 13.7 km/h 13.7 km/h 34 % 0.0 mm
17:58 31.2 °C 13.5 °C 1010.0 hPa SW 9.0 km/h 9.0 km/h 34 % 0.0 mm
18:03 31.1 °C 13.4 °C 1010.0 hPa SSW 9.3 km/h 9.3 km/h 34 % 0.0 mm
18:08 30.5 °C 12.4 °C 1010.0 hPa SW 16.7 km/h 16.7 km/h 33 % 0.0 mm
18:13 30.4 °C 12.8 °C 1010.0 hPa SW 9.5 km/h 9.5 km/h 34 % 0.0 mm
18:18 30.1 °C 12.5 °C 1010.0 hPa South 9.5 km/h 9.5 km/h 34 % 0.0 mm
18:23 30.1 °C 12.5 °C 1010.0 hPa SW 5.6 km/h 5.6 km/h 34 % 0.0 mm
18:28 30.0 °C 12.9 °C 1010.0 hPa SW 5.6 km/h 5.6 km/h 35 % 0.0 mm
18:33 29.8 °C 12.7 °C 1010.0 hPa South 3.7 km/h 3.9 km/h 35 % 0.0 mm
18:38 29.9 °C 13.2 °C 1010.0 hPa SSW 1.9 km/h   36 % 0.0 mm
18:43 29.7 °C 13.1 °C 1010.0 hPa WSW 7.4 km/h 7.4 km/h 36 % 0.0 mm
18:48 29.3 °C 12.7 °C 1010.0 hPa WSW 5.6 km/h 5.6 km/h 36 % 0.0 mm
18:53 29.3 °C 12.7 °C 1010.0 hPa SW 7.4 km/h 7.4 km/h 36 % 0.0 mm
18:58 29.1 °C 12.9 °C 1010.0 hPa SW 11.1 km/h 11.1 km/h 37 % 0.0 mm
19:03 29.0 °C 12.8 °C 1010.0 hPa SW 7.4 km/h 7.4 km/h 37 % 0.0 mm
19:08 28.9 °C 13.2 °C 1010.7 hPa SSW 5.8 km/h 5.8 km/h 38 % 0.0 mm
19:13 28.7 °C 13.4 °C 1010.7 hPa West 9.3 km/h 9.3 km/h 39 % 0.0 mm
19:18 28.4 °C 13.1 °C 1010.7 hPa SSW 9.5 km/h 9.5 km/h 39 % 0.0 mm
19:23 28.2 °C 13.3 °C 1010.7 hPa West 9.3 km/h 9.3 km/h 40 % 0.0 mm
19:28 28.0 °C 13.2 °C 1010.7 hPa WSW 6.9 km/h 6.9 km/h 40 % 0.0 mm
19:33 27.7 °C 13.3 °C 1010.7 hPa WSW 13.0 km/h 13.0 km/h 41 % 0.0 mm
19:38 27.4 °C 13.0 °C 1010.7 hPa WSW 14.8 km/h 14.8 km/h 41 % 0.0 mm
19:43 27.4 °C 13.0 °C 1010.7 hPa South 13.0 km/h 13.0 km/h 41 % 0.0 mm
19:48 27.2 °C 12.8 °C 1010.7 hPa WSW 9.3 km/h 9.3 km/h 41 % 0.0 mm
19:53 27.0 °C 12.6 °C 1011.7 hPa WSW 13.0 km/h 13.0 km/h 41 % 0.0 mm
19:58 26.8 °C 12.8 °C 1011.7 hPa WSW 13.0 km/h 13.0 km/h 42 % 0.0 mm
20:00 22.9 °C 16.4 °C 1013.8 hPa NE 1.6 km/h 3.2 km/h 67 % 0.0 mm
20:03 26.7 °C 12.7 °C 1011.7 hPa WSW 9.3 km/h 9.3 km/h 42 % 0.0 mm
20:08 26.6 °C 12.6 °C 1011.7 hPa SW 9.3 km/h 9.3 km/h 42 % 0.0 mm
20:10 22.8 °C 16.6 °C 1013.8 hPa NE 3.2 km/h 6.4 km/h 68 % 0.0 mm
20:13 26.5 °C 12.9 °C 1011.7 hPa SW 6.4 km/h 6.4 km/h 43 % 0.0 mm
20:18 26.5 °C 12.9 °C 1011.7 hPa West 11.1 km/h 11.1 km/h 43 % 0.0 mm
20:20 22.7 °C 16.5 °C 1013.8 hPa NE 3.2 km/h 3.2 km/h 68 % 0.0 mm
20:23 26.6 °C 13.0 °C 1011.7 hPa SSW 7.4 km/h 7.4 km/h 43 % 0.0 mm
20:28 26.7 °C 13.4 °C 1011.7 hPa SW 5.8 km/h 5.8 km/h 44 % 0.0 mm
20:30 22.6 °C 16.6 °C 1013.8 hPa NNE 3.2 km/h 4.8 km/h 69 % 0.0 mm
20:33 26.5 °C 13.3 °C 1011.7 hPa SW 5.6 km/h 5.6 km/h 44 % 0.0 mm
20:38 26.5 °C 13.3 °C 1011.7 hPa WSW 7.4 km/h 7.4 km/h 44 % 0.0 mm
20:40 22.5 °C 16.8 °C 1013.8 hPa NNE 3.2 km/h 4.8 km/h 70 % 0.0 mm
20:43 26.5 °C 13.3 °C 1011.7 hPa SW 6.1 km/h 6.1 km/h 44 % 0.0 mm
20:48 26.3 °C 13.1 °C 1011.7 hPa South 9.3 km/h 9.3 km/h 44 % 0.0 mm
20:50 22.4 °C 16.7 °C 1013.8 hPa NNE 3.2 km/h 4.8 km/h 70 % 0.0 mm
20:53 26.2 °C 13.0 °C 1011.7 hPa West 7.4 km/h 7.4 km/h 44 % 0.0 mm
20:58 26.1 °C 12.9 °C 1011.7 hPa SW 5.0 km/h 5.0 km/h 44 % 0.0 mm
21:00 22.4 °C 17.1 °C 1013.8 hPa NE 3.2 km/h 4.8 km/h 72 % 0.0 mm
21:03 26.1 °C 12.9 °C 1011.7 hPa SW 1.9 km/h 1.9 km/h 44 % 0.0 mm
21:08 26.0 °C 13.2 °C 1011.7 hPa SW 1.9 km/h 1.9 km/h 45 % 0.0 mm
21:10 22.3 °C 17.2 °C 1013.8 hPa NE 3.2 km/h 4.8 km/h 73 % 0.0 mm
21:13 25.9 °C 13.1 °C 1011.7 hPa SSW 5.6 km/h 5.6 km/h 45 % 0.0 mm
21:18 25.7 °C 12.9 °C 1011.7 hPa SW 5.6 km/h 5.6 km/h 45 % 0.0 mm
21:20 22.2 °C 17.1 °C 1013.8 hPa NE 3.2 km/h 6.4 km/h 73 % 0.0 mm
21:23 25.6 °C 12.8 °C 1011.7 hPa SW 3.9 km/h 3.9 km/h 45 % 0.0 mm
21:28 25.5 °C 12.7 °C 1011.7 hPa West 3.7 km/h 3.7 km/h 45 % 0.0 mm
21:30 22.3 °C 17.0 °C 1013.8 hPa NE 3.2 km/h 4.8 km/h 72 % 0.0 mm
21:33 25.4 °C 12.6 °C 1011.7 hPa Calm     45 % 0.0 mm
21:39 25.3 °C 12.5 °C 1012.8 hPa Calm     45 % 0.0 mm
21:40 22.3 °C 17.0 °C 1013.8 hPa NE 3.2 km/h 8.0 km/h 72 % 0.0 mm
21:44 25.2 °C 12.4 °C 1012.8 hPa West 3.7 km/h 3.7 km/h 45 % 0.0 mm
21:49 25.1 °C 12.7 °C 1012.8 hPa West 3.5 km/h   46 % 0.0 mm
21:50 22.2 °C 17.1 °C 1013.8 hPa NE 3.2 km/h 6.4 km/h 73 % 0.0 mm
21:54 25.0 °C 12.6 °C 1011.7 hPa SW 3.7 km/h 3.7 km/h 46 % 0.0 mm
21:59 24.9 °C 12.8 °C 1011.7 hPa SW 1.9 km/h 1.9 km/h 47 % 0.0 mm
22:00 22.1 °C 17.2 °C 1013.8 hPa ENE 1.6 km/h 6.4 km/h 74 % 0.0 mm
22:04 24.7 °C 12.6 °C 1011.7 hPa Calm     47 % 0.0 mm
22:09 24.6 °C 12.8 °C 1011.7 hPa Calm     48 % 0.0 mm
22:10 22.0 °C 17.2 °C 1013.8 hPa ENE 4.8 km/h 4.8 km/h 74 % 0.0 mm
22:14 24.6 °C 12.8 °C 1011.7 hPa Calm     48 % 0.0 mm
22:19 24.5 °C 12.8 °C 1011.7 hPa Calm     48 % 0.0 mm
22:20 21.9 °C 17.3 °C 1014.8 hPa NE 3.2 km/h 4.8 km/h 75 % 0.0 mm
22:24 24.4 °C 13.0 °C 1012.8 hPa Calm     49 % 0.0 mm
22:29 24.4 °C 13.0 °C 1012.8 hPa Calm     49 % 0.0 mm
22:30 21.8 °C 17.2 °C 1013.8 hPa NE 3.2 km/h 4.8 km/h 75 % 0.0 mm
22:34 24.3 °C 12.9 °C 1012.8 hPa Calm     49 % 0.0 mm
22:39 24.3 °C 12.9 °C 1013.8 hPa NNE 2.3 km/h   49 % 0.0 mm
22:40 21.7 °C 17.3 °C 1013.8 hPa ENE 1.6 km/h 3.2 km/h 76 % 0.0 mm
22:44 24.4 °C 13.0 °C 1013.8 hPa NNE 5.6 km/h 5.6 km/h 49 % 0.0 mm
22:45 24.4 °C 13.0 °C 1013.8 hPa NNE 1.9 km/h   49 % 0.0 mm
22:50 24.3 °C 12.9 °C 1013.8 hPa NNE 3.7 km/h 3.7 km/h 49 % 0.0 mm
22:55 24.3 °C 12.9 °C 1013.8 hPa NE 3.7 km/h 3.7 km/h 49 % 0.0 mm
23:00 24.3 °C 13.2 °C 1013.8 hPa NE 1.9 km/h 1.9 km/h 50 % 0.0 mm
23:05 24.2 °C 13.1 °C 1013.8 hPa Calm     50 % 0.0 mm
23:10 24.1 °C 13.0 °C 1013.8 hPa Calm     50 % 0.0 mm
23:15 24.1 °C 13.3 °C 1013.8 hPa North 3.7 km/h 3.7 km/h 51 % 0.0 mm
23:20 24.1 °C 13.3 °C 1013.8 hPa NNE 3.7 km/h 3.7 km/h 51 % 0.0 mm
23:25 24.0 °C 13.8 °C 1013.8 hPa NE 2.6 km/h 2.6 km/h 53 % 0.0 mm
23:30 24.0 °C 13.8 °C 1013.8 hPa NNE 3.7 km/h 3.7 km/h 53 % 0.0 mm
23:35 23.9 °C 14.6 °C 1013.8 hPa NNE 1.9 km/h   56 % 0.0 mm
23:40 23.8 °C 14.8 °C 1013.8 hPa NE 3.7 km/h 3.7 km/h 57 % 0.0 mm
23:45 23.8 °C 15.1 °C 1013.8 hPa NE 3.7 km/h 3.7 km/h 58 % 0.0 mm
23:50 23.7 °C 15.2 °C 1013.8 hPa Calm     59 % 0.0 mm
23:55 23.6 °C 15.4 °C 1013.8 hPa NE 3.7 km/h 3.7 km/h 60 % 0.0 mm
Meteo Sesrovires
Elogis d' Weather Underground - 3.75 mb

Guio original per  Jim McMurry - jmcmurry@mwt.net Adaptat per a la plantilla per  Wim van der Kuil - Leuven-Template.eu

Trobareu la nostra informacio del temps tambe a:

Weather Underground

AWEKAS